James L. Oberstar — WDC6154 — position and weather

sailwx.info

Track history (hours):
 
Tides and Currents Weather Stations Pressure Air Temp Water Temp Dewpoint Dewpoint Depression Visibility Wind Speed Wind Dir Waves Ship Positions

James L. Oberstar

More information available from US FCC via Universal Licensing System and Coast Guard Vessel Documentation Center.

Last reported at 2014-Sep-18 01:29 UTC. Time now 2014-Sep-22 16:15 UTC.
Position N 30°03' W 090°50'.

Length 26 m; draft 2.8 m.

Type: Towing. MMSI: 367052120.

Date/timePositionNaut miles runAvg speedWind from/ knotsBaromVisibWave heightAir tempDewpointWater temp
2014-Sep-18 01:29N 30°03' W 090°50'4 4.2
2014-Sep-18 00:33N 29°59' W 090°49'12 3.7
2014-Sep-17 21:19N 30°03' W 090°36'3 3.8
2014-Sep-17 20:33N 30°03' W 090°33'2 0.1
2014-Sep-16 20:18N 30°03' W 090°31'5 0.2
2014-Sep-15 16:06N 30°02' W 090°37'2 4.2
2014-Sep-15 15:33N 30°03' W 090°34'12 3.8
2014-Sep-15 12:19N 29°56' W 090°22'0 0.0
2014-Sep-14 17:25N 29°56' W 090°22'3 0.7
2014-Sep-14 12:31N 29°59' W 090°24'0 0.0
2014-Sep-14 11:27N 29°59' W 090°24'0 0.0
2014-Sep-14 10:33N 29°59' W 090°24'0 0.0
2014-Sep-14 09:33N 29°59' W 090°24'0 0.0
2014-Sep-14 08:33N 29°59' W 090°24'0 0.0
2014-Sep-14 07:33N 29°59' W 090°24'0 0.0
2014-Sep-14 06:30N 29°59' W 090°24'0 0.0
2014-Sep-14 05:33N 29°59' W 090°24'0 0.0
2014-Sep-14 04:30N 29°59' W 090°24'0 0.0
2014-Sep-14 03:33N 29°59' W 090°24'0 0.5
2014-Sep-14 02:31N 29°60' W 090°24'0 0.1
2014-Sep-14 01:28N 29°59' W 090°25'0 0.1
2014-Sep-13 21:33N 29°60' W 090°25'0 0.0
2014-Sep-13 20:33N 29°60' W 090°25'0 0.0
2014-Sep-13 19:33N 29°60' W 090°25'0 0.0
2014-Sep-13 18:33N 29°60' W 090°25'6 0.3
2014-Sep-12 22:33N 30°03' W 090°31'3 1.6
2014-Sep-12 20:33N 30°03' W 090°35'10 0.3
2014-Sep-11 12:29N 29°59' W 090°24'0 0.0
2014-Sep-11 11:24N 29°59' W 090°24'0 0.0
2014-Sep-11 10:33N 29°59' W 090°24'0 0.0
2014-Sep-11 09:33N 29°59' W 090°24'0 0.0
2014-Sep-11 08:27N 29°59' W 090°24'0 0.0
2014-Sep-11 07:30N 29°59' W 090°24'0 0.0
2014-Sep-11 06:33N 29°59' W 090°24'0 0.0
2014-Sep-11 05:33N 29°59' W 090°24'0 0.1
2014-Sep-11 04:33N 29°59' W 090°24'0 0.2
2014-Sep-11 03:30N 29°59' W 090°24'0 0.0
2014-Sep-11 02:33N 29°59' W 090°24'0 0.0
2014-Sep-11 01:30N 29°59' W 090°24'1 0.6
2014-Sep-10 23:18N 29°58' W 090°24'1 1.8
2014-Sep-10 22:33N 29°59' W 090°24'7 0.7
2014-Sep-10 13:15N 30°03' W 090°31'6 8.1
2014-Sep-10 12:33N 30°02' W 090°37'7 7.3
2014-Sep-10 11:33N 30°01' W 090°45'5 4.9
2014-Sep-10 10:29N 30°03' W 090°51'14 0.3
2014-Sep-08 16:33N 30°03' W 090°35'  
Track history (hours):
 
Tides and Currents Weather Stations Pressure Air Temp Water Temp Dewpoint Dewpoint Depression Visibility Wind Speed Wind Dir Waves Ship Positions

James L. Oberstar

More information available from US FCC via Universal Licensing System and Coast Guard Vessel Documentation Center.

Last reported at 2014-Sep-18 01:29 UTC. Time now 2014-Sep-22 16:15 UTC.
Position N 30°03' W 090°50'.

Length 26 m; draft 2.8 m.

Type: Towing. MMSI: 367052120.

Date/timePositionNaut miles runAvg speedWind from/ knotsBaromVisibWave heightAir tempDewpointWater temp
2014-Sep-18 01:29N 30°03' W 090°50'4 4.2
2014-Sep-18 00:33N 29°59' W 090°49'12 3.7
2014-Sep-17 21:19N 30°03' W 090°36'3 3.8
2014-Sep-17 20:33N 30°03' W 090°33'2 0.1
2014-Sep-16 20:18N 30°03' W 090°31'5 0.2
2014-Sep-15 16:06N 30°02' W 090°37'2 4.2
2014-Sep-15 15:33N 30°03' W 090°34'12 3.8
2014-Sep-15 12:19N 29°56' W 090°22'0 0.0
2014-Sep-14 17:25N 29°56' W 090°22'3 0.7
2014-Sep-14 12:31N 29°59' W 090°24'0 0.0
2014-Sep-14 11:27N 29°59' W 090°24'0 0.0
2014-Sep-14 10:33N 29°59' W 090°24'0 0.0
2014-Sep-14 09:33N 29°59' W 090°24'0 0.0
2014-Sep-14 08:33N 29°59' W 090°24'0 0.0
2014-Sep-14 07:33N 29°59' W 090°24'0 0.0
2014-Sep-14 06:30N 29°59' W 090°24'0 0.0
2014-Sep-14 05:33N 29°59' W 090°24'0 0.0
2014-Sep-14 04:30N 29°59' W 090°24'0 0.0
2014-Sep-14 03:33N 29°59' W 090°24'0 0.5
2014-Sep-14 02:31N 29°60' W 090°24'0 0.1
2014-Sep-14 01:28N 29°59' W 090°25'0 0.1
2014-Sep-13 21:33N 29°60' W 090°25'0 0.0
2014-Sep-13 20:33N 29°60' W 090°25'0 0.0
2014-Sep-13 19:33N 29°60' W 090°25'0 0.0
2014-Sep-13 18:33N 29°60' W 090°25'6 0.3
2014-Sep-12 22:33N 30°03' W 090°31'3 1.6
2014-Sep-12 20:33N 30°03' W 090°35'10 0.3
2014-Sep-11 12:29N 29°59' W 090°24'0 0.0
2014-Sep-11 11:24N 29°59' W 090°24'0 0.0
2014-Sep-11 10:33N 29°59' W 090°24'0 0.0
2014-Sep-11 09:33N 29°59' W 090°24'0 0.0
2014-Sep-11 08:27N 29°59' W 090°24'0 0.0
2014-Sep-11 07:30N 29°59' W 090°24'0 0.0
2014-Sep-11 06:33N 29°59' W 090°24'0 0.0
2014-Sep-11 05:33N 29°59' W 090°24'0 0.1
2014-Sep-11 04:33N 29°59' W 090°24'0 0.2
2014-Sep-11 03:30N 29°59' W 090°24'0 0.0
2014-Sep-11 02:33N 29°59' W 090°24'0 0.0
2014-Sep-11 01:30N 29°59' W 090°24'1 0.6
2014-Sep-10 23:18N 29°58' W 090°24'1 1.8
2014-Sep-10 22:33N 29°59' W 090°24'7 0.7
2014-Sep-10 13:15N 30°03' W 090°31'6 8.1
2014-Sep-10 12:33N 30°02' W 090°37'7 7.3
2014-Sep-10 11:33N 30°01' W 090°45'5 4.9
2014-Sep-10 10:29N 30°03' W 090°51'14 0.3
2014-Sep-08 16:33N 30°03' W 090°35'  

Dump ship's entire track history